sensor_id;sensor_type;location;lat;lon;timestamp;temperature;humidity
5154;DHT22;2595;53.584;10.084;2023-02-01T00:01:39;5.90;99.90
5154;DHT22;2595;53.584;10.084;2023-02-01T00:04:05;5.90;99.90
5154;DHT22;2595;53.584;10.084;2023-02-01T00:06:31;5.90;99.90
5154;DHT22;2595;53.584;10.084;2023-02-01T00:08:56;5.90;99.90
5154;DHT22;2595;53.584;10.084;2023-02-01T00:11:23;5.90;99.90
5154;DHT22;2595;53.584;10.084;2023-02-01T00:13:49;5.90;99.90
5154;DHT22;2595;53.584;10.084;2023-02-01T00:16:20;6.00;99.90
5154;DHT22;2595;53.584;10.084;2023-02-01T00:18:48;6.00;99.90
5154;DHT22;2595;53.584;10.084;2023-02-01T00:21:17;5.90;99.90
5154;DHT22;2595;53.584;10.084;2023-02-01T00:23:43;5.80;99.90
5154;DHT22;2595;53.584;10.084;2023-02-01T00:26:31;5.80;99.90
5154;DHT22;2595;53.584;10.084;2023-02-01T00:28:58;5.80;99.90
5154;DHT22;2595;53.584;10.084;2023-02-01T00:31:24;5.80;99.90
5154;DHT22;2595;53.584;10.084;2023-02-01T00:33:50;5.70;99.90
5154;DHT22;2595;53.584;10.084;2023-02-01T00:36:16;5.80;99.90
5154;DHT22;2595;53.584;10.084;2023-02-01T00:38:43;5.80;99.90
5154;DHT22;2595;53.584;10.084;2023-02-01T00:41:14;5.80;99.90
5154;DHT22;2595;53.584;10.084;2023-02-01T00:43:43;5.70;99.90
5154;DHT22;2595;53.584;10.084;2023-02-01T00:46:10;5.80;99.90
5154;DHT22;2595;53.584;10.084;2023-02-01T00:48:36;5.80;99.90
5154;DHT22;2595;53.584;10.084;2023-02-01T00:51:04;5.90;99.90
5154;DHT22;2595;53.584;10.084;2023-02-01T00:53:31;5.90;99.90
5154;DHT22;2595;53.584;10.084;2023-02-01T00:55:57;5.90;99.90
5154;DHT22;2595;53.584;10.084;2023-02-01T00:58:23;5.90;99.90
5154;DHT22;2595;53.584;10.084;2023-02-01T01:03:32;5.90;99.90
5154;DHT22;2595;53.584;10.084;2023-02-01T01:06:00;5.90;99.90
5154;DHT22;2595;53.584;10.084;2023-02-01T01:08:27;6.00;99.90
5154;DHT22;2595;53.584;10.084;2023-02-01T01:10:53;6.00;99.90
5154;DHT22;2595;53.584;10.084;2023-02-01T01:13:19;6.00;99.90
5154;DHT22;2595;53.584;10.084;2023-02-01T01:15:45;6.00;99.90
5154;DHT22;2595;53.584;10.084;2023-02-01T01:18:10;6.00;99.90
5154;DHT22;2595;53.584;10.084;2023-02-01T01:20:39;6.00;99.90
5154;DHT22;2595;53.584;10.084;2023-02-01T01:23:05;6.00;99.90
5154;DHT22;2595;53.584;10.084;2023-02-01T01:25:31;6.00;99.90
5154;DHT22;2595;53.584;10.084;2023-02-01T01:27:57;6.00;99.90
5154;DHT22;2595;53.584;10.084;2023-02-01T01:30:23;6.00;99.90
5154;DHT22;2595;53.584;10.084;2023-02-01T01:32:49;6.00;99.90
5154;DHT22;2595;53.584;10.084;2023-02-01T01:35:15;6.00;99.90
5154;DHT22;2595;53.584;10.084;2023-02-01T01:37:40;6.00;99.90
5154;DHT22;2595;53.584;10.084;2023-02-01T01:40:08;6.00;99.90
5154;DHT22;2595;53.584;10.084;2023-02-01T01:42:42;6.00;99.90
5154;DHT22;2595;53.584;10.084;2023-02-01T01:47:52;6.00;99.90
5154;DHT22;2595;53.584;10.084;2023-02-01T01:50:25;6.10;99.90
5154;DHT22;2595;53.584;10.084;2023-02-01T01:52:52;6.00;99.90
5154;DHT22;2595;53.584;10.084;2023-02-01T01:55:22;6.00;99.90
5154;DHT22;2595;53.584;10.084;2023-02-01T01:57:57;6.00;99.90
5154;DHT22;2595;53.584;10.084;2023-02-01T02:00:24;6.00;99.90
5154;DHT22;2595;53.584;10.084;2023-02-01T02:02:56;6.10;99.90
5154;DHT22;2595;53.584;10.084;2023-02-01T02:05:22;6.10;99.90
5154;DHT22;2595;53.584;10.084;2023-02-01T02:07:49;6.10;99.90
5154;DHT22;2595;53.584;10.084;2023-02-01T02:10:17;6.10;99.90
5154;DHT22;2595;53.584;10.084;2023-02-01T02:12:44;6.10;99.90
5154;DHT22;2595;53.584;10.084;2023-02-01T02:15:14;6.10;99.90
5154;DHT22;2595;53.584;10.084;2023-02-01T02:17:55;6.10;99.90
5154;DHT22;2595;53.584;10.084;2023-02-01T02:20:39;6.10;99.90
5154;DHT22;2595;53.584;10.084;2023-02-01T02:26:10;6.10;99.90
5154;DHT22;2595;53.584;10.084;2023-02-01T02:34:38;6.10;99.90
5154;DHT22;2595;53.584;10.084;2023-02-01T02:40:09;6.10;99.90
5154;DHT22;2595;53.584;10.084;2023-02-01T02:43:05;6.10;99.90
5154;DHT22;2595;53.584;10.084;2023-02-01T02:46:14;6.10;99.90
5154;DHT22;2595;53.584;10.084;2023-02-01T02:49:27;6.10;99.90
5154;DHT22;2595;53.584;10.084;2023-02-01T02:52:13;6.10;99.90
5154;DHT22;2595;53.584;10.084;2023-02-01T02:54:59;6.10;99.90
5154;DHT22;2595;53.584;10.084;2023-02-01T02:57:28;6.00;99.90
5154;DHT22;2595;53.584;10.084;2023-02-01T03:00:19;6.00;99.90
5154;DHT22;2595;53.584;10.084;2023-02-01T03:03:04;6.00;99.90
5154;DHT22;2595;53.584;10.084;2023-02-01T03:05:49;6.00;99.90
5154;DHT22;2595;53.584;10.084;2023-02-01T03:08:23;6.00;99.90
5154;DHT22;2595;53.584;10.084;2023-02-01T03:11:07;6.00;99.90
5154;DHT22;2595;53.584;10.084;2023-02-01T03:16:11;5.90;99.90
5154;DHT22;2595;53.584;10.084;2023-02-01T03:21:35;5.90;99.90
5154;DHT22;2595;53.584;10.084;2023-02-01T03:24:07;5.90;99.90
5154;DHT22;2595;53.584;10.084;2023-02-01T03:26:37;5.90;99.90
5154;DHT22;2595;53.584;10.084;2023-02-01T03:29:18;5.90;99.90
5154;DHT22;2595;53.584;10.084;2023-02-01T03:31:47;5.90;99.90
5154;DHT22;2595;53.584;10.084;2023-02-01T03:34:13;5.80;99.90
5154;DHT22;2595;53.584;10.084;2023-02-01T03:36:40;5.80;99.90
5154;DHT22;2595;53.584;10.084;2023-02-01T03:39:27;5.80;99.90
5154;DHT22;2595;53.584;10.084;2023-02-01T03:41:59;5.80;99.90
5154;DHT22;2595;53.584;10.084;2023-02-01T03:44:36;5.70;99.90
5154;DHT22;2595;53.584;10.084;2023-02-01T03:47:09;5.70;99.90
5154;DHT22;2595;53.584;10.084;2023-02-01T03:49:43;5.70;99.90
5154;DHT22;2595;53.584;10.084;2023-02-01T03:52:16;5.70;99.90
5154;DHT22;2595;53.584;10.084;2023-02-01T03:54:43;5.70;99.90
5154;DHT22;2595;53.584;10.084;2023-02-01T03:57:13;5.70;99.90
5154;DHT22;2595;53.584;10.084;2023-02-01T03:59:45;5.60;99.90
5154;DHT22;2595;53.584;10.084;2023-02-01T04:02:11;5.60;99.90
5154;DHT22;2595;53.584;10.084;2023-02-01T04:04:37;5.60;99.90
5154;DHT22;2595;53.584;10.084;2023-02-01T04:07:03;5.60;99.90
5154;DHT22;2595;53.584;10.084;2023-02-01T04:09:29;5.60;99.90
5154;DHT22;2595;53.584;10.084;2023-02-01T04:11:55;5.60;99.90
5154;DHT22;2595;53.584;10.084;2023-02-01T04:14:20;5.60;99.90
5154;DHT22;2595;53.584;10.084;2023-02-01T04:16:46;5.60;99.90
5154;DHT22;2595;53.584;10.084;2023-02-01T04:19:12;5.60;99.90
5154;DHT22;2595;53.584;10.084;2023-02-01T04:21:38;5.60;99.90
5154;DHT22;2595;53.584;10.084;2023-02-01T04:24:04;5.60;99.90
5154;DHT22;2595;53.584;10.084;2023-02-01T04:26:30;5.60;99.90
5154;DHT22;2595;53.584;10.084;2023-02-01T04:28:55;5.60;99.90
5154;DHT22;2595;53.584;10.084;2023-02-01T04:31:21;5.60;99.90
5154;DHT22;2595;53.584;10.084;2023-02-01T04:33:54;5.60;99.90
5154;DHT22;2595;53.584;10.084;2023-02-01T04:36:20;5.60;99.90
5154;DHT22;2595;53.584;10.084;2023-02-01T04:38:48;5.60;99.90
5154;DHT22;2595;53.584;10.084;2023-02-01T04:41:14;5.60;99.90
5154;DHT22;2595;53.584;10.084;2023-02-01T04:43:39;5.50;99.90
5154;DHT22;2595;53.584;10.084;2023-02-01T04:46:05;5.50;99.90
5154;DHT22;2595;53.584;10.084;2023-02-01T04:48:30;5.50;99.90
5154;DHT22;2595;53.584;10.084;2023-02-01T04:50:56;5.50;99.90
5154;DHT22;2595;53.584;10.084;2023-02-01T04:53:21;5.50;99.90
5154;DHT22;2595;53.584;10.084;2023-02-01T04:55:48;5.40;99.90
5154;DHT22;2595;53.584;10.084;2023-02-01T04:58:15;5.40;99.90
5154;DHT22;2595;53.584;10.084;2023-02-01T05:00:41;5.40;99.90
5154;DHT22;2595;53.584;10.084;2023-02-01T05:03:06;5.40;99.90
5154;DHT22;2595;53.584;10.084;2023-02-01T05:05:32;5.40;99.90
5154;DHT22;2595;53.584;10.084;2023-02-01T05:07:58;5.40;99.90
5154;DHT22;2595;53.584;10.084;2023-02-01T05:10:24;5.40;99.90
5154;DHT22;2595;53.584;10.084;2023-02-01T05:12:49;5.40;99.90
5154;DHT22;2595;53.584;10.084;2023-02-01T05:15:33;5.30;99.90
5154;DHT22;2595;53.584;10.084;2023-02-01T05:17:59;5.30;99.90
5154;DHT22;2595;53.584;10.084;2023-02-01T05:20:25;5.20;99.90
5154;DHT22;2595;53.584;10.084;2023-02-01T05:22:51;5.20;99.90
5154;DHT22;2595;53.584;10.084;2023-02-01T05:25:16;5.10;99.90
5154;DHT22;2595;53.584;10.084;2023-02-01T05:27:42;5.00;99.90
5154;DHT22;2595;53.584;10.084;2023-02-01T05:30:08;5.00;99.90
5154;DHT22;2595;53.584;10.084;2023-02-01T05:32:34;4.90;99.90
5154;DHT22;2595;53.584;10.084;2023-02-01T05:35:00;4.80;99.90
5154;DHT22;2595;53.584;10.084;2023-02-01T05:37:26;4.80;99.90
5154;DHT22;2595;53.584;10.084;2023-02-01T05:39:51;4.70;99.90
5154;DHT22;2595;53.584;10.084;2023-02-01T05:42:17;4.70;99.90
5154;DHT22;2595;53.584;10.084;2023-02-01T05:44:43;4.60;99.90
5154;DHT22;2595;53.584;10.084;2023-02-01T05:47:08;4.60;99.90
5154;DHT22;2595;53.584;10.084;2023-02-01T05:49:34;4.60;99.90
5154;DHT22;2595;53.584;10.084;2023-02-01T05:52:00;4.60;99.90
5154;DHT22;2595;53.584;10.084;2023-02-01T05:54:25;4.50;99.90
5154;DHT22;2595;53.584;10.084;2023-02-01T05:56:51;4.50;99.90
5154;DHT22;2595;53.584;10.084;2023-02-01T05:59:17;4.50;99.90
5154;DHT22;2595;53.584;10.084;2023-02-01T06:01:42;4.40;99.90
5154;DHT22;2595;53.584;10.084;2023-02-01T06:04:08;4.40;99.90
5154;DHT22;2595;53.584;10.084;2023-02-01T06:06:33;4.40;99.90
5154;DHT22;2595;53.584;10.084;2023-02-01T06:09:00;4.30;99.90
5154;DHT22;2595;53.584;10.084;2023-02-01T06:11:26;4.30;99.90
5154;DHT22;2595;53.584;10.084;2023-02-01T06:13:51;4.30;99.90
5154;DHT22;2595;53.584;10.084;2023-02-01T06:16:17;4.30;99.90
5154;DHT22;2595;53.584;10.084;2023-02-01T06:18:43;4.30;99.90
5154;DHT22;2595;53.584;10.084;2023-02-01T06:21:08;4.20;99.90
5154;DHT22;2595;53.584;10.084;2023-02-01T06:23:34;4.30;99.90
5154;DHT22;2595;53.584;10.084;2023-02-01T06:26:05;4.30;99.90
5154;DHT22;2595;53.584;10.084;2023-02-01T06:28:33;4.30;99.90
5154;DHT22;2595;53.584;10.084;2023-02-01T06:31:03;4.30;99.90
5154;DHT22;2595;53.584;10.084;2023-02-01T06:33:32;4.30;99.90
5154;DHT22;2595;53.584;10.084;2023-02-01T06:36:00;4.40;99.90
5154;DHT22;2595;53.584;10.084;2023-02-01T06:38:26;4.40;99.90
5154;DHT22;2595;53.584;10.084;2023-02-01T06:40:53;4.40;99.90
5154;DHT22;2595;53.584;10.084;2023-02-01T06:43:19;4.50;99.90
5154;DHT22;2595;53.584;10.084;2023-02-01T06:45:44;4.50;99.90
5154;DHT22;2595;53.584;10.084;2023-02-01T06:48:10;4.50;99.90
5154;DHT22;2595;53.584;10.084;2023-02-01T06:50:36;4.50;99.90
5154;DHT22;2595;53.584;10.084;2023-02-01T06:53:01;4.60;99.90
5154;DHT22;2595;53.584;10.084;2023-02-01T06:55:27;4.60;99.90
5154;DHT22;2595;53.584;10.084;2023-02-01T06:57:55;4.60;99.90
5154;DHT22;2595;53.584;10.084;2023-02-01T07:00:22;4.60;99.90
5154;DHT22;2595;53.584;10.084;2023-02-01T07:02:48;4.70;99.90
5154;DHT22;2595;53.584;10.084;2023-02-01T07:05:14;4.70;99.90
5154;DHT22;2595;53.584;10.084;2023-02-01T07:07:40;4.70;99.90
5154;DHT22;2595;53.584;10.084;2023-02-01T07:10:05;4.80;99.90
5154;DHT22;2595;53.584;10.084;2023-02-01T07:12:31;4.80;99.90
5154;DHT22;2595;53.584;10.084;2023-02-01T07:14:57;4.80;99.90
5154;DHT22;2595;53.584;10.084;2023-02-01T07:17:23;4.80;99.90
5154;DHT22;2595;53.584;10.084;2023-02-01T07:19:48;4.90;99.90
5154;DHT22;2595;53.584;10.084;2023-02-01T07:22:17;4.90;99.90
5154;DHT22;2595;53.584;10.084;2023-02-01T07:24:43;4.90;99.90
5154;DHT22;2595;53.584;10.084;2023-02-01T07:27:08;4.90;99.90
5154;DHT22;2595;53.584;10.084;2023-02-01T07:29:34;4.90;99.90
5154;DHT22;2595;53.584;10.084;2023-02-01T07:31:59;4.90;99.90
5154;DHT22;2595;53.584;10.084;2023-02-01T07:34:26;4.90;99.90
5154;DHT22;2595;53.584;10.084;2023-02-01T07:36:52;5.00;99.90
5154;DHT22;2595;53.584;10.084;2023-02-01T07:39:17;5.00;99.90
5154;DHT22;2595;53.584;10.084;2023-02-01T07:41:43;5.00;99.90
5154;DHT22;2595;53.584;10.084;2023-02-01T07:44:09;5.10;99.90
5154;DHT22;2595;53.584;10.084;2023-02-01T07:46:34;5.10;99.90
5154;DHT22;2595;53.584;10.084;2023-02-01T07:49:01;5.10;99.90
5154;DHT22;2595;53.584;10.084;2023-02-01T07:51:27;5.10;99.90
5154;DHT22;2595;53.584;10.084;2023-02-01T07:53:52;5.10;99.90
5154;DHT22;2595;53.584;10.084;2023-02-01T07:56:20;5.10;99.90
5154;DHT22;2595;53.584;10.084;2023-02-01T07:58:49;5.10;99.90
5154;DHT22;2595;53.584;10.084;2023-02-01T08:01:17;5.10;99.90
5154;DHT22;2595;53.584;10.084;2023-02-01T08:03:50;5.10;99.90
5154;DHT22;2595;53.584;10.084;2023-02-01T08:06:16;5.10;99.90
5154;DHT22;2595;53.584;10.084;2023-02-01T08:08:42;5.20;99.90
5154;DHT22;2595;53.584;10.084;2023-02-01T08:11:10;5.20;99.90
5154;DHT22;2595;53.584;10.084;2023-02-01T08:13:36;5.30;99.90
5154;DHT22;2595;53.584;10.084;2023-02-01T08:16:04;5.30;99.90
5154;DHT22;2595;53.584;10.084;2023-02-01T08:18:31;5.30;99.90
5154;DHT22;2595;53.584;10.084;2023-02-01T08:20:57;5.40;99.90
5154;DHT22;2595;53.584;10.084;2023-02-01T08:23:23;5.40;99.90
5154;DHT22;2595;53.584;10.084;2023-02-01T08:25:49;5.50;99.90
5154;DHT22;2595;53.584;10.084;2023-02-01T08:28:15;5.50;99.90
5154;DHT22;2595;53.584;10.084;2023-02-01T08:30:40;5.50;99.90
5154;DHT22;2595;53.584;10.084;2023-02-01T08:33:08;5.50;99.90
5154;DHT22;2595;53.584;10.084;2023-02-01T08:35:37;5.60;99.90
5154;DHT22;2595;53.584;10.084;2023-02-01T08:38:03;5.60;99.90
5154;DHT22;2595;53.584;10.084;2023-02-01T08:40:30;5.70;99.90
5154;DHT22;2595;53.584;10.084;2023-02-01T08:42:56;5.70;99.90
5154;DHT22;2595;53.584;10.084;2023-02-01T08:45:24;5.70;99.90
5154;DHT22;2595;53.584;10.084;2023-02-01T08:47:52;5.70;99.90
5154;DHT22;2595;53.584;10.084;2023-02-01T08:50:18;5.70;99.90
5154;DHT22;2595;53.584;10.084;2023-02-01T08:52:44;5.70;99.90
5154;DHT22;2595;53.584;10.084;2023-02-01T08:55:10;5.70;99.90
5154;DHT22;2595;53.584;10.084;2023-02-01T08:57:36;5.70;99.90
5154;DHT22;2595;53.584;10.084;2023-02-01T09:00:03;5.70;99.90
5154;DHT22;2595;53.584;10.084;2023-02-01T09:02:29;5.70;99.90
5154;DHT22;2595;53.584;10.084;2023-02-01T09:04:55;5.70;99.90
5154;DHT22;2595;53.584;10.084;2023-02-01T09:07:21;5.60;99.90
5154;DHT22;2595;53.584;10.084;2023-02-01T09:09:47;5.70;99.90
5154;DHT22;2595;53.584;10.084;2023-02-01T09:12:12;5.70;99.90
5154;DHT22;2595;53.584;10.084;2023-02-01T09:14:38;5.70;99.90
5154;DHT22;2595;53.584;10.084;2023-02-01T09:17:03;5.80;99.90
5154;DHT22;2595;53.584;10.084;2023-02-01T09:19:31;5.80;99.90
5154;DHT22;2595;53.584;10.084;2023-02-01T09:21:56;5.80;99.90
5154;DHT22;2595;53.584;10.084;2023-02-01T09:24:22;5.90;99.90
5154;DHT22;2595;53.584;10.084;2023-02-01T09:26:48;5.90;99.90
5154;DHT22;2595;53.584;10.084;2023-02-01T09:29:14;5.90;99.90
5154;DHT22;2595;53.584;10.084;2023-02-01T09:31:40;5.90;99.90
5154;DHT22;2595;53.584;10.084;2023-02-01T09:34:06;6.00;99.90
5154;DHT22;2595;53.584;10.084;2023-02-01T09:36:32;6.10;99.90
5154;DHT22;2595;53.584;10.084;2023-02-01T09:38:59;6.10;99.90
5154;DHT22;2595;53.584;10.084;2023-02-01T09:41:40;6.20;99.90
5154;DHT22;2595;53.584;10.084;2023-02-01T09:44:12;6.20;99.90
5154;DHT22;2595;53.584;10.084;2023-02-01T09:46:40;6.30;99.90
5154;DHT22;2595;53.584;10.084;2023-02-01T09:49:17;6.30;99.90
5154;DHT22;2595;53.584;10.084;2023-02-01T09:51:46;6.30;99.90
5154;DHT22;2595;53.584;10.084;2023-02-01T09:54:16;6.30;99.90
5154;DHT22;2595;53.584;10.084;2023-02-01T09:57:03;6.30;99.90
5154;DHT22;2595;53.584;10.084;2023-02-01T09:59:44;6.30;99.90
5154;DHT22;2595;53.584;10.084;2023-02-01T10:02:20;6.30;99.90
5154;DHT22;2595;53.584;10.084;2023-02-01T10:04:47;6.30;99.90
5154;DHT22;2595;53.584;10.084;2023-02-01T10:10:40;6.40;99.90
5154;DHT22;2595;53.584;10.084;2023-02-01T10:13:12;6.50;99.90
5154;DHT22;2595;53.584;10.084;2023-02-01T10:19:12;6.60;99.90
5154;DHT22;2595;53.584;10.084;2023-02-01T10:22:08;6.60;99.90
5154;DHT22;2595;53.584;10.084;2023-02-01T10:24:53;6.60;99.90
5154;DHT22;2595;53.584;10.084;2023-02-01T10:27:32;6.70;99.90
5154;DHT22;2595;53.584;10.084;2023-02-01T10:30:04;6.70;99.90
5154;DHT22;2595;53.584;10.084;2023-02-01T10:32:33;6.70;99.90
5154;DHT22;2595;53.584;10.084;2023-02-01T10:35:12;6.70;99.90
5154;DHT22;2595;53.584;10.084;2023-02-01T10:37:41;6.60;99.90
5154;DHT22;2595;53.584;10.084;2023-02-01T10:40:19;6.60;99.90
5154;DHT22;2595;53.584;10.084;2023-02-01T10:42:57;6.60;99.90
5154;DHT22;2595;53.584;10.084;2023-02-01T10:45:27;6.60;99.90
5154;DHT22;2595;53.584;10.084;2023-02-01T10:47:55;6.50;99.90
5154;DHT22;2595;53.584;10.084;2023-02-01T10:53:42;6.40;99.90
5154;DHT22;2595;53.584;10.084;2023-02-01T10:56:10;6.30;99.90
5154;DHT22;2595;53.584;10.084;2023-02-01T10:58:44;6.20;99.90
5154;DHT22;2595;53.584;10.084;2023-02-01T11:01:20;6.20;99.90
5154;DHT22;2595;53.584;10.084;2023-02-01T11:03:53;6.10;99.90
5154;DHT22;2595;53.584;10.084;2023-02-01T11:06:40;6.10;99.90
5154;DHT22;2595;53.584;10.084;2023-02-01T11:11:33;6.10;99.90
5154;DHT22;2595;53.584;10.084;2023-02-01T11:14:17;6.10;99.90
5154;DHT22;2595;53.584;10.084;2023-02-01T11:16:48;6.10;99.90
5154;DHT22;2595;53.584;10.084;2023-02-01T11:19:15;6.00;99.90
5154;DHT22;2595;53.584;10.084;2023-02-01T11:21:42;6.00;99.90
5154;DHT22;2595;53.584;10.084;2023-02-01T11:26:53;5.90;99.90
5154;DHT22;2595;53.584;10.084;2023-02-01T11:29:21;5.90;99.90
5154;DHT22;2595;53.584;10.084;2023-02-01T11:31:58;5.90;99.90
5154;DHT22;2595;53.584;10.084;2023-02-01T11:34:27;5.90;99.90
5154;DHT22;2595;53.584;10.084;2023-02-01T11:36:58;6.00;99.90
5154;DHT22;2595;53.584;10.084;2023-02-01T11:39:30;6.00;99.90
5154;DHT22;2595;53.584;10.084;2023-02-01T11:44:39;6.10;99.90
5154;DHT22;2595;53.584;10.084;2023-02-01T11:49:50;6.20;99.90
5154;DHT22;2595;53.584;10.084;2023-02-01T11:57:42;6.20;99.90
5154;DHT22;2595;53.584;10.084;2023-02-01T12:11:45;6.20;99.90
5154;DHT22;2595;53.584;10.084;2023-02-01T12:38:16;6.00;99.90
5154;DHT22;2595;53.584;10.084;2023-02-01T12:41:08;5.90;99.90
5154;DHT22;2595;53.584;10.084;2023-02-01T12:46:16;5.80;99.90
5154;DHT22;2595;53.584;10.084;2023-02-01T12:49:05;5.80;99.90
5154;DHT22;2595;53.584;10.084;2023-02-01T12:51:36;5.70;99.90
5154;DHT22;2595;53.584;10.084;2023-02-01T12:54:11;5.60;99.90
5154;DHT22;2595;53.584;10.084;2023-02-01T12:56:44;5.60;99.90
5154;DHT22;2595;53.584;10.084;2023-02-01T13:01:50;5.40;99.90
5154;DHT22;2595;53.584;10.084;2023-02-01T13:04:34;5.40;99.90
5154;DHT22;2595;53.584;10.084;2023-02-01T13:07:13;5.40;99.90
5154;DHT22;2595;53.584;10.084;2023-02-01T13:12:33;5.40;99.90
5154;DHT22;2595;53.584;10.084;2023-02-01T13:15:51;5.30;99.90
5154;DHT22;2595;53.584;10.084;2023-02-01T13:17:49;5.30;99.90
5154;DHT22;2595;53.584;10.084;2023-02-01T13:22:51;5.30;99.90
5154;DHT22;2595;53.584;10.084;2023-02-01T13:25:38;5.30;99.90
5154;DHT22;2595;53.584;10.084;2023-02-01T13:28:20;5.30;99.90
5154;DHT22;2595;53.584;10.084;2023-02-01T13:34:15;5.40;99.90
5154;DHT22;2595;53.584;10.084;2023-02-01T13:39:58;5.50;99.90
5154;DHT22;2595;53.584;10.084;2023-02-01T13:45:16;5.60;99.90
5154;DHT22;2595;53.584;10.084;2023-02-01T13:47:45;5.60;99.90
5154;DHT22;2595;53.584;10.084;2023-02-01T13:50:27;5.60;99.90
5154;DHT22;2595;53.584;10.084;2023-02-01T13:52:55;5.70;99.90
5154;DHT22;2595;53.584;10.084;2023-02-01T13:57:49;5.70;99.90
5154;DHT22;2595;53.584;10.084;2023-02-01T14:00:34;5.70;99.90
5154;DHT22;2595;53.584;10.084;2023-02-01T14:10:59;5.60;99.90
5154;DHT22;2595;53.584;10.084;2023-02-01T14:13:37;5.60;99.90
5154;DHT22;2595;53.584;10.084;2023-02-01T14:23:55;5.30;99.90
5154;DHT22;2595;53.584;10.084;2023-02-01T14:32:03;5.20;99.90
5154;DHT22;2595;53.584;10.084;2023-02-01T14:34:39;5.20;99.90
5154;DHT22;2595;53.584;10.084;2023-02-01T14:37:11;5.10;99.90
5154;DHT22;2595;53.584;10.084;2023-02-01T14:55:36;5.00;99.90
5154;DHT22;2595;53.584;10.084;2023-02-01T14:58:13;5.00;99.90
5154;DHT22;2595;53.584;10.084;2023-02-01T15:00:56;5.00;99.90
5154;DHT22;2595;53.584;10.084;2023-02-01T15:12:28;5.10;99.90
5154;DHT22;2595;53.584;10.084;2023-02-01T15:15:21;5.10;99.90
5154;DHT22;2595;53.584;10.084;2023-02-01T15:17:56;5.20;99.90
5154;DHT22;2595;53.584;10.084;2023-02-01T15:20:27;5.20;99.90
5154;DHT22;2595;53.584;10.084;2023-02-01T15:23:17;5.20;99.90
5154;DHT22;2595;53.584;10.084;2023-02-01T15:32:32;5.20;99.90
5154;DHT22;2595;53.584;10.084;2023-02-01T15:35:00;5.20;99.90
5154;DHT22;2595;53.584;10.084;2023-02-01T15:40:55;5.20;99.90
5154;DHT22;2595;53.584;10.084;2023-02-01T15:43:22;5.20;99.90
5154;DHT22;2595;53.584;10.084;2023-02-01T15:45:48;5.20;99.90
5154;DHT22;2595;53.584;10.084;2023-02-01T15:48:21;5.10;99.90
5154;DHT22;2595;53.584;10.084;2023-02-01T15:50:48;5.20;99.90
5154;DHT22;2595;53.584;10.084;2023-02-01T15:53:20;5.20;99.90
5154;DHT22;2595;53.584;10.084;2023-02-01T15:55:47;5.10;99.90
5154;DHT22;2595;53.584;10.084;2023-02-01T15:58:21;5.10;99.90
5154;DHT22;2595;53.584;10.084;2023-02-01T16:00:52;5.20;99.90
5154;DHT22;2595;53.584;10.084;2023-02-01T16:03:48;5.20;99.90
5154;DHT22;2595;53.584;10.084;2023-02-01T16:08:53;5.20;99.90
5154;DHT22;2595;53.584;10.084;2023-02-01T16:11:23;5.20;99.90
5154;DHT22;2595;53.584;10.084;2023-02-01T16:13:50;5.20;99.90
5154;DHT22;2595;53.584;10.084;2023-02-01T16:16:15;5.20;99.90
5154;DHT22;2595;53.584;10.084;2023-02-01T16:18:41;5.20;99.90
5154;DHT22;2595;53.584;10.084;2023-02-01T16:21:07;5.20;99.90
5154;DHT22;2595;53.584;10.084;2023-02-01T16:23:38;5.30;99.90
5154;DHT22;2595;53.584;10.084;2023-02-01T16:26:04;5.30;99.90
5154;DHT22;2595;53.584;10.084;2023-02-01T16:28:31;5.30;99.90
5154;DHT22;2595;53.584;10.084;2023-02-01T16:30:57;5.30;99.90
5154;DHT22;2595;53.584;10.084;2023-02-01T16:33:23;5.30;99.90
5154;DHT22;2595;53.584;10.084;2023-02-01T16:35:49;5.40;99.90
5154;DHT22;2595;53.584;10.084;2023-02-01T16:38:17;5.40;99.90
5154;DHT22;2595;53.584;10.084;2023-02-01T16:40:46;5.40;99.90
5154;DHT22;2595;53.584;10.084;2023-02-01T16:43:17;5.40;99.90
5154;DHT22;2595;53.584;10.084;2023-02-01T16:45:44;5.40;99.90
5154;DHT22;2595;53.584;10.084;2023-02-01T16:48:20;5.50;99.90
5154;DHT22;2595;53.584;10.084;2023-02-01T16:50:50;5.50;99.90
5154;DHT22;2595;53.584;10.084;2023-02-01T16:53:17;5.50;99.90
5154;DHT22;2595;53.584;10.084;2023-02-01T16:55:42;5.50;99.90
5154;DHT22;2595;53.584;10.084;2023-02-01T16:58:09;5.60;99.90
5154;DHT22;2595;53.584;10.084;2023-02-01T17:00:35;5.60;99.90
5154;DHT22;2595;53.584;10.084;2023-02-01T17:03:03;5.60;99.90
5154;DHT22;2595;53.584;10.084;2023-02-01T17:05:29;5.60;99.90
5154;DHT22;2595;53.584;10.084;2023-02-01T17:08:02;5.60;99.90
5154;DHT22;2595;53.584;10.084;2023-02-01T17:10:29;5.60;99.90
5154;DHT22;2595;53.584;10.084;2023-02-01T17:12:55;5.70;99.90
5154;DHT22;2595;53.584;10.084;2023-02-01T17:15:26;5.70;99.90
5154;DHT22;2595;53.584;10.084;2023-02-01T17:17:53;5.70;99.90
5154;DHT22;2595;53.584;10.084;2023-02-01T17:20:24;5.70;99.90
5154;DHT22;2595;53.584;10.084;2023-02-01T17:22:51;5.70;99.90
5154;DHT22;2595;53.584;10.084;2023-02-01T17:25:19;5.80;99.90
5154;DHT22;2595;53.584;10.084;2023-02-01T17:27:46;5.80;99.90
5154;DHT22;2595;53.584;10.084;2023-02-01T17:30:13;5.80;99.90
5154;DHT22;2595;53.584;10.084;2023-02-01T17:32:39;5.80;99.90
5154;DHT22;2595;53.584;10.084;2023-02-01T17:35:08;5.90;99.90
5154;DHT22;2595;53.584;10.084;2023-02-01T17:37:37;5.90;99.90
5154;DHT22;2595;53.584;10.084;2023-02-01T17:40:03;5.90;99.90
5154;DHT22;2595;53.584;10.084;2023-02-01T17:42:29;5.90;99.90
5154;DHT22;2595;53.584;10.084;2023-02-01T17:44:59;5.90;99.90
5154;DHT22;2595;53.584;10.084;2023-02-01T17:47:25;5.90;99.90
5154;DHT22;2595;53.584;10.084;2023-02-01T17:49:50;5.90;99.90
5154;DHT22;2595;53.584;10.084;2023-02-01T17:52:22;5.90;99.90
5154;DHT22;2595;53.584;10.084;2023-02-01T17:54:48;5.90;99.90
5154;DHT22;2595;53.584;10.084;2023-02-01T17:57:18;5.90;99.90
5154;DHT22;2595;53.584;10.084;2023-02-01T17:59:43;6.00;99.90
5154;DHT22;2595;53.584;10.084;2023-02-01T18:02:18;6.00;99.90
5154;DHT22;2595;53.584;10.084;2023-02-01T18:04:44;6.00;99.90
5154;DHT22;2595;53.584;10.084;2023-02-01T18:07:09;6.00;99.90
5154;DHT22;2595;53.584;10.084;2023-02-01T18:09:35;6.00;99.90
5154;DHT22;2595;53.584;10.084;2023-02-01T18:12:03;6.00;99.90
5154;DHT22;2595;53.584;10.084;2023-02-01T18:14:30;6.00;99.90
5154;DHT22;2595;53.584;10.084;2023-02-01T18:16:55;6.10;99.90
5154;DHT22;2595;53.584;10.084;2023-02-01T18:19:21;6.10;99.90
5154;DHT22;2595;53.584;10.084;2023-02-01T18:21:46;6.10;99.90
5154;DHT22;2595;53.584;10.084;2023-02-01T18:24:13;6.10;99.90
5154;DHT22;2595;53.584;10.084;2023-02-01T18:26:40;6.00;99.90
5154;DHT22;2595;53.584;10.084;2023-02-01T18:29:05;6.00;99.90
5154;DHT22;2595;53.584;10.084;2023-02-01T18:31:31;6.00;99.90
5154;DHT22;2595;53.584;10.084;2023-02-01T18:33:58;6.00;99.90
5154;DHT22;2595;53.584;10.084;2023-02-01T18:36:25;6.00;99.90
5154;DHT22;2595;53.584;10.084;2023-02-01T18:38:50;6.00;99.90
5154;DHT22;2595;53.584;10.084;2023-02-01T18:41:19;6.00;99.90
5154;DHT22;2595;53.584;10.084;2023-02-01T18:43:46;6.00;99.90
5154;DHT22;2595;53.584;10.084;2023-02-01T18:46:12;6.00;99.90
5154;DHT22;2595;53.584;10.084;2023-02-01T18:48:42;6.00;99.90
5154;DHT22;2595;53.584;10.084;2023-02-01T18:51:12;6.00;99.90
5154;DHT22;2595;53.584;10.084;2023-02-01T18:53:38;6.00;99.90
5154;DHT22;2595;53.584;10.084;2023-02-01T18:56:05;6.00;99.90
5154;DHT22;2595;53.584;10.084;2023-02-01T18:58:30;6.00;99.90
5154;DHT22;2595;53.584;10.084;2023-02-01T19:00:58;6.00;99.90
5154;DHT22;2595;53.584;10.084;2023-02-01T19:03:28;6.00;99.90